Terminal Aerodrome Forecast
Issued by NWS Charleston, WV

Home | Current Version | Previous Version | Text Only | Print | Product List | Glossary On
Versions: 1 2 3 4 5 6 7 8 9 10 11 12 13 14 15 16 17 18 19 20 21 22
473
FTUS41 KRLX 140529
TAFCRW
TAF
KCRW 140529Z 1406/1506 VRB03KT P6SM SCT250
     FM142200 VRB03KT 5SM -SN OVC040
     FM150000 11004KT 1SM -SN BR OVC015=

USA.gov is the U.S. government's official web portal to all federal, state and local government web resources and services.